sensor_id;sensor_type;location;lat;lon;timestamp;temperature;humidity
6375;DHT22;35400;45.472;-122.822;2024-03-17T00:02:26;24.00;48.00
6375;DHT22;35400;45.472;-122.822;2024-03-17T00:04:53;24.00;48.90
6375;DHT22;35400;45.472;-122.822;2024-03-17T00:07:20;24.00;47.60
6375;DHT22;35400;45.472;-122.822;2024-03-17T00:09:47;23.90;46.90
6375;DHT22;35400;45.472;-122.822;2024-03-17T00:12:14;23.90;47.00
6375;DHT22;35400;45.472;-122.822;2024-03-17T00:14:42;23.80;46.90
6375;DHT22;35400;45.472;-122.822;2024-03-17T00:17:09;23.70;47.00
6375;DHT22;35400;45.472;-122.822;2024-03-17T00:19:37;23.60;47.60
6375;DHT22;35400;45.472;-122.822;2024-03-17T00:22:03;23.60;45.00
6375;DHT22;35400;45.472;-122.822;2024-03-17T00:24:32;23.60;45.20
6375;DHT22;35400;45.472;-122.822;2024-03-17T00:27:02;23.50;45.80
6375;DHT22;35400;45.472;-122.822;2024-03-17T00:29:29;23.50;45.90
6375;DHT22;35400;45.472;-122.822;2024-03-17T00:31:56;23.60;46.20
6375;DHT22;35400;45.472;-122.822;2024-03-17T00:34:23;23.50;47.20
6375;DHT22;35400;45.472;-122.822;2024-03-17T00:36:51;23.50;47.80
6375;DHT22;35400;45.472;-122.822;2024-03-17T00:39:18;23.40;46.50
6375;DHT22;35400;45.472;-122.822;2024-03-17T00:41:45;23.40;46.40
6375;DHT22;35400;45.472;-122.822;2024-03-17T00:44:12;23.40;45.70
6375;DHT22;35400;45.472;-122.822;2024-03-17T00:46:39;23.40;46.80
6375;DHT22;35400;45.472;-122.822;2024-03-17T00:49:09;23.40;47.20
6375;DHT22;35400;45.472;-122.822;2024-03-17T00:51:37;23.30;46.80
6375;DHT22;35400;45.472;-122.822;2024-03-17T00:54:03;23.30;46.80
6375;DHT22;35400;45.472;-122.822;2024-03-17T00:56:30;23.30;44.60
6375;DHT22;35400;45.472;-122.822;2024-03-17T00:58:57;23.20;44.60
6375;DHT22;35400;45.472;-122.822;2024-03-17T01:01:24;23.20;45.50
6375;DHT22;35400;45.472;-122.822;2024-03-17T01:03:51;23.10;45.70
6375;DHT22;35400;45.472;-122.822;2024-03-17T01:06:18;23.10;45.80
6375;DHT22;35400;45.472;-122.822;2024-03-17T01:08:45;23.00;45.40
6375;DHT22;35400;45.472;-122.822;2024-03-17T01:11:16;23.00;45.00
6375;DHT22;35400;45.472;-122.822;2024-03-17T01:13:46;23.00;45.20
6375;DHT22;35400;45.472;-122.822;2024-03-17T01:16:15;22.90;45.00
6375;DHT22;35400;45.472;-122.822;2024-03-17T01:18:42;22.90;44.90
6375;DHT22;35400;45.472;-122.822;2024-03-17T01:21:12;22.80;45.50
6375;DHT22;35400;45.472;-122.822;2024-03-17T01:23:39;22.80;45.60
6375;DHT22;35400;45.472;-122.822;2024-03-17T01:26:06;22.80;46.40
6375;DHT22;35400;45.472;-122.822;2024-03-17T01:28:32;22.70;46.20
6375;DHT22;35400;45.472;-122.822;2024-03-17T01:30:59;22.60;46.00
6375;DHT22;35400;45.472;-122.822;2024-03-17T01:33:26;22.60;45.90
6375;DHT22;35400;45.472;-122.822;2024-03-17T01:35:53;22.50;45.90
6375;DHT22;35400;45.472;-122.822;2024-03-17T01:38:20;22.50;46.40
6375;DHT22;35400;45.472;-122.822;2024-03-17T01:40:47;22.40;46.40
6375;DHT22;35400;45.472;-122.822;2024-03-17T01:43:14;22.30;47.20
6375;DHT22;35400;45.472;-122.822;2024-03-17T01:45:41;22.20;47.50
6375;DHT22;35400;45.472;-122.822;2024-03-17T01:48:13;22.10;48.70
6375;DHT22;35400;45.472;-122.822;2024-03-17T01:50:46;22.00;48.60
6375;DHT22;35400;45.472;-122.822;2024-03-17T01:53:15;21.90;49.00
6375;DHT22;35400;45.472;-122.822;2024-03-17T01:55:43;21.70;49.20
6375;DHT22;35400;45.472;-122.822;2024-03-17T01:58:11;21.60;51.40
6375;DHT22;35400;45.472;-122.822;2024-03-17T02:00:39;21.50;51.00
6375;DHT22;35400;45.472;-122.822;2024-03-17T02:03:07;21.40;51.90
6375;DHT22;35400;45.472;-122.822;2024-03-17T02:05:36;21.20;52.80
6375;DHT22;35400;45.472;-122.822;2024-03-17T02:08:07;21.00;53.50
6375;DHT22;35400;45.472;-122.822;2024-03-17T02:10:34;20.90;54.40
6375;DHT22;35400;45.472;-122.822;2024-03-17T02:13:01;20.70;55.50
6375;DHT22;35400;45.472;-122.822;2024-03-17T02:15:33;20.60;56.20
6375;DHT22;35400;45.472;-122.822;2024-03-17T02:18:00;20.40;56.30
6375;DHT22;35400;45.472;-122.822;2024-03-17T02:20:27;20.30;56.30
6375;DHT22;35400;45.472;-122.822;2024-03-17T02:23:13;20.10;56.40
6375;DHT22;35400;45.472;-122.822;2024-03-17T02:25:40;19.90;56.50
6375;DHT22;35400;45.472;-122.822;2024-03-17T02:28:06;19.80;57.70
6375;DHT22;35400;45.472;-122.822;2024-03-17T02:30:34;19.60;58.00
6375;DHT22;35400;45.472;-122.822;2024-03-17T02:33:01;19.50;59.00
6375;DHT22;35400;45.472;-122.822;2024-03-17T02:35:29;19.40;59.10
6375;DHT22;35400;45.472;-122.822;2024-03-17T02:37:56;19.20;59.20
6375;DHT22;35400;45.472;-122.822;2024-03-17T02:40:22;19.10;59.70
6375;DHT22;35400;45.472;-122.822;2024-03-17T02:42:49;19.00;60.70
6375;DHT22;35400;45.472;-122.822;2024-03-17T02:45:16;18.80;61.30
6375;DHT22;35400;45.472;-122.822;2024-03-17T02:47:43;18.70;61.20
6375;DHT22;35400;45.472;-122.822;2024-03-17T02:50:11;18.50;60.60
6375;DHT22;35400;45.472;-122.822;2024-03-17T02:52:38;18.40;60.60
6375;DHT22;35400;45.472;-122.822;2024-03-17T02:55:05;18.30;61.10
6375;DHT22;35400;45.472;-122.822;2024-03-17T02:57:32;18.20;61.20
6375;DHT22;35400;45.472;-122.822;2024-03-17T02:59:59;18.10;61.60
6375;DHT22;35400;45.472;-122.822;2024-03-17T03:02:26;18.00;62.00
6375;DHT22;35400;45.472;-122.822;2024-03-17T03:04:53;17.90;62.20
6375;DHT22;35400;45.472;-122.822;2024-03-17T03:07:19;17.80;62.30
6375;DHT22;35400;45.472;-122.822;2024-03-17T03:09:46;17.70;62.40
6375;DHT22;35400;45.472;-122.822;2024-03-17T03:12:13;17.50;62.50
6375;DHT22;35400;45.472;-122.822;2024-03-17T03:14:40;17.40;62.80
6375;DHT22;35400;45.472;-122.822;2024-03-17T03:17:07;17.30;63.20
6375;DHT22;35400;45.472;-122.822;2024-03-17T03:19:34;17.20;63.60
6375;DHT22;35400;45.472;-122.822;2024-03-17T03:22:01;17.10;63.90
6375;DHT22;35400;45.472;-122.822;2024-03-17T03:24:28;17.00;64.30
6375;DHT22;35400;45.472;-122.822;2024-03-17T03:26:55;16.90;64.60
6375;DHT22;35400;45.472;-122.822;2024-03-17T03:29:22;16.80;65.80
6375;DHT22;35400;45.472;-122.822;2024-03-17T03:31:49;16.70;65.50
6375;DHT22;35400;45.472;-122.822;2024-03-17T03:34:16;16.60;66.00
6375;DHT22;35400;45.472;-122.822;2024-03-17T03:36:43;16.50;66.30
6375;DHT22;35400;45.472;-122.822;2024-03-17T03:39:09;16.40;66.50
6375;DHT22;35400;45.472;-122.822;2024-03-17T03:41:38;16.30;67.00
6375;DHT22;35400;45.472;-122.822;2024-03-17T03:44:05;16.20;67.20
6375;DHT22;35400;45.472;-122.822;2024-03-17T03:46:32;16.10;67.50
6375;DHT22;35400;45.472;-122.822;2024-03-17T03:48:59;16.00;67.70
6375;DHT22;35400;45.472;-122.822;2024-03-17T03:51:26;15.90;67.90
6375;DHT22;35400;45.472;-122.822;2024-03-17T03:53:53;15.80;68.30
6375;DHT22;35400;45.472;-122.822;2024-03-17T03:56:19;15.80;68.60
6375;DHT22;35400;45.472;-122.822;2024-03-17T03:58:47;15.70;68.90
6375;DHT22;35400;45.472;-122.822;2024-03-17T04:01:14;15.60;69.40
6375;DHT22;35400;45.472;-122.822;2024-03-17T04:03:48;15.50;69.90
6375;DHT22;35400;45.472;-122.822;2024-03-17T04:06:16;15.50;70.20
6375;DHT22;35400;45.472;-122.822;2024-03-17T04:08:43;15.40;70.40
6375;DHT22;35400;45.472;-122.822;2024-03-17T04:11:10;15.30;70.90
6375;DHT22;35400;45.472;-122.822;2024-03-17T04:13:37;15.20;71.00
6375;DHT22;35400;45.472;-122.822;2024-03-17T04:16:05;15.10;71.40
6375;DHT22;35400;45.472;-122.822;2024-03-17T04:18:33;15.00;71.50
6375;DHT22;35400;45.472;-122.822;2024-03-17T04:21:07;14.90;72.40
6375;DHT22;35400;45.472;-122.822;2024-03-17T04:23:34;14.80;72.50
6375;DHT22;35400;45.472;-122.822;2024-03-17T04:26:02;14.80;72.70
6375;DHT22;35400;45.472;-122.822;2024-03-17T04:28:29;14.70;72.70
6375;DHT22;35400;45.472;-122.822;2024-03-17T04:31:04;14.60;73.10
6375;DHT22;35400;45.472;-122.822;2024-03-17T04:33:32;14.50;73.60
6375;DHT22;35400;45.472;-122.822;2024-03-17T04:35:59;14.50;74.50
6375;DHT22;35400;45.472;-122.822;2024-03-17T04:38:26;14.40;74.70
6375;DHT22;35400;45.472;-122.822;2024-03-17T04:40:53;14.30;75.00
6375;DHT22;35400;45.472;-122.822;2024-03-17T04:43:41;14.20;75.10
6375;DHT22;35400;45.472;-122.822;2024-03-17T04:46:07;14.10;75.40
6375;DHT22;35400;45.472;-122.822;2024-03-17T04:48:38;14.10;76.00
6375;DHT22;35400;45.472;-122.822;2024-03-17T04:51:05;14.00;76.50
6375;DHT22;35400;45.472;-122.822;2024-03-17T04:53:32;13.90;76.70
6375;DHT22;35400;45.472;-122.822;2024-03-17T04:56:04;13.90;77.60
6375;DHT22;35400;45.472;-122.822;2024-03-17T04:58:32;13.80;78.00
6375;DHT22;35400;45.472;-122.822;2024-03-17T05:01:06;13.70;78.30
6375;DHT22;35400;45.472;-122.822;2024-03-17T05:03:34;13.60;78.40
6375;DHT22;35400;45.472;-122.822;2024-03-17T05:06:03;13.60;79.00
6375;DHT22;35400;45.472;-122.822;2024-03-17T05:08:31;13.50;79.60
6375;DHT22;35400;45.472;-122.822;2024-03-17T05:10:59;13.40;79.80
6375;DHT22;35400;45.472;-122.822;2024-03-17T05:13:30;13.30;80.30
6375;DHT22;35400;45.472;-122.822;2024-03-17T05:15:57;13.20;80.60
6375;DHT22;35400;45.472;-122.822;2024-03-17T05:18:24;13.20;81.80
6375;DHT22;35400;45.472;-122.822;2024-03-17T05:21:06;13.10;82.30
6375;DHT22;35400;45.472;-122.822;2024-03-17T05:23:34;13.00;82.60
6375;DHT22;35400;45.472;-122.822;2024-03-17T05:26:01;12.90;82.90
6375;DHT22;35400;45.472;-122.822;2024-03-17T05:28:30;12.90;83.20
6375;DHT22;35400;45.472;-122.822;2024-03-17T05:30:57;12.80;83.60
6375;DHT22;35400;45.472;-122.822;2024-03-17T05:33:25;12.70;83.80
6375;DHT22;35400;45.472;-122.822;2024-03-17T05:35:54;12.70;83.90
6375;DHT22;35400;45.472;-122.822;2024-03-17T05:38:23;12.70;84.20
6375;DHT22;35400;45.472;-122.822;2024-03-17T05:41:13;12.60;84.20
6375;DHT22;35400;45.472;-122.822;2024-03-17T05:43:40;12.50;84.60
6375;DHT22;35400;45.472;-122.822;2024-03-17T05:46:12;12.50;85.10
6375;DHT22;35400;45.472;-122.822;2024-03-17T05:48:40;12.40;85.90
6375;DHT22;35400;45.472;-122.822;2024-03-17T05:51:11;12.40;86.40
6375;DHT22;35400;45.472;-122.822;2024-03-17T05:53:39;12.30;86.80
6375;DHT22;35400;45.472;-122.822;2024-03-17T05:56:10;12.30;87.40
6375;DHT22;35400;45.472;-122.822;2024-03-17T05:58:39;12.20;87.60
6375;DHT22;35400;45.472;-122.822;2024-03-17T06:01:06;12.20;87.90
6375;DHT22;35400;45.472;-122.822;2024-03-17T06:03:38;12.10;88.50
6375;DHT22;35400;45.472;-122.822;2024-03-17T06:06:06;12.00;89.00
6375;DHT22;35400;45.472;-122.822;2024-03-17T06:08:39;12.00;89.20
6375;DHT22;35400;45.472;-122.822;2024-03-17T06:11:06;11.90;90.20
6375;DHT22;35400;45.472;-122.822;2024-03-17T06:13:33;11.90;90.30
6375;DHT22;35400;45.472;-122.822;2024-03-17T06:16:02;11.80;90.50
6375;DHT22;35400;45.472;-122.822;2024-03-17T06:18:29;11.80;90.80
6375;DHT22;35400;45.472;-122.822;2024-03-17T06:20:56;11.80;91.20
6375;DHT22;35400;45.472;-122.822;2024-03-17T06:23:26;11.70;91.40
6375;DHT22;35400;45.472;-122.822;2024-03-17T06:25:56;11.70;91.60
6375;DHT22;35400;45.472;-122.822;2024-03-17T06:28:23;11.60;91.80
6375;DHT22;35400;45.472;-122.822;2024-03-17T06:30:57;11.50;92.00
6375;DHT22;35400;45.472;-122.822;2024-03-17T06:33:30;11.50;92.30
6375;DHT22;35400;45.472;-122.822;2024-03-17T06:36:02;11.40;92.70
6375;DHT22;35400;45.472;-122.822;2024-03-17T06:38:31;11.40;93.10
6375;DHT22;35400;45.472;-122.822;2024-03-17T06:40:58;11.30;93.30
6375;DHT22;35400;45.472;-122.822;2024-03-17T06:43:25;11.30;93.80
6375;DHT22;35400;45.472;-122.822;2024-03-17T06:45:59;11.20;94.20
6375;DHT22;35400;45.472;-122.822;2024-03-17T06:48:26;11.20;94.70
6375;DHT22;35400;45.472;-122.822;2024-03-17T06:50:54;11.10;95.10
6375;DHT22;35400;45.472;-122.822;2024-03-17T06:53:22;11.10;95.40
6375;DHT22;35400;45.472;-122.822;2024-03-17T06:56:07;11.00;95.70
6375;DHT22;35400;45.472;-122.822;2024-03-17T06:58:34;10.90;96.10
6375;DHT22;35400;45.472;-122.822;2024-03-17T07:01:01;10.90;96.40
6375;DHT22;35400;45.472;-122.822;2024-03-17T07:03:30;10.90;96.90
6375;DHT22;35400;45.472;-122.822;2024-03-17T07:05:59;10.80;97.40
6375;DHT22;35400;45.472;-122.822;2024-03-17T07:08:29;10.80;97.90
6375;DHT22;35400;45.472;-122.822;2024-03-17T07:11:07;10.70;98.20
6375;DHT22;35400;45.472;-122.822;2024-03-17T07:13:37;10.70;98.80
6375;DHT22;35400;45.472;-122.822;2024-03-17T07:16:08;10.60;99.20
6375;DHT22;35400;45.472;-122.822;2024-03-17T07:18:36;10.60;99.50
6375;DHT22;35400;45.472;-122.822;2024-03-17T07:21:04;10.60;99.90
6375;DHT22;35400;45.472;-122.822;2024-03-17T07:23:32;10.50;99.90
6375;DHT22;35400;45.472;-122.822;2024-03-17T07:26:00;10.50;99.90
6375;DHT22;35400;45.472;-122.822;2024-03-17T07:28:27;10.40;99.90
6375;DHT22;35400;45.472;-122.822;2024-03-17T07:30:56;10.40;99.90
6375;DHT22;35400;45.472;-122.822;2024-03-17T07:33:24;10.30;99.90
6375;DHT22;35400;45.472;-122.822;2024-03-17T07:35:55;10.30;99.90
6375;DHT22;35400;45.472;-122.822;2024-03-17T07:38:30;10.20;99.90
6375;DHT22;35400;45.472;-122.822;2024-03-17T07:41:07;10.20;99.90
6375;DHT22;35400;45.472;-122.822;2024-03-17T07:43:38;10.10;99.90
6375;DHT22;35400;45.472;-122.822;2024-03-17T07:46:10;10.00;99.90
6375;DHT22;35400;45.472;-122.822;2024-03-17T07:48:41;10.00;99.90
6375;DHT22;35400;45.472;-122.822;2024-03-17T07:51:10;10.00;99.90
6375;DHT22;35400;45.472;-122.822;2024-03-17T07:53:42;10.00;99.90
6375;DHT22;35400;45.472;-122.822;2024-03-17T07:56:10;9.90;99.90
6375;DHT22;35400;45.472;-122.822;2024-03-17T07:58:39;9.90;99.90
6375;DHT22;35400;45.472;-122.822;2024-03-17T08:01:07;9.80;99.90
6375;DHT22;35400;45.472;-122.822;2024-03-17T08:03:37;9.80;99.90
6375;DHT22;35400;45.472;-122.822;2024-03-17T08:06:07;9.80;99.90
6375;DHT22;35400;45.472;-122.822;2024-03-17T08:08:35;9.70;99.90
6375;DHT22;35400;45.472;-122.822;2024-03-17T08:11:02;9.70;99.90
6375;DHT22;35400;45.472;-122.822;2024-03-17T08:13:30;9.60;99.90
6375;DHT22;35400;45.472;-122.822;2024-03-17T08:16:05;9.60;99.90
6375;DHT22;35400;45.472;-122.822;2024-03-17T08:18:33;9.60;99.90
6375;DHT22;35400;45.472;-122.822;2024-03-17T08:21:01;9.50;99.90
6375;DHT22;35400;45.472;-122.822;2024-03-17T08:23:30;9.50;99.90
6375;DHT22;35400;45.472;-122.822;2024-03-17T08:25:58;9.40;99.90
6375;DHT22;35400;45.472;-122.822;2024-03-17T08:28:26;9.40;99.90
6375;DHT22;35400;45.472;-122.822;2024-03-17T08:31:01;9.30;99.90
6375;DHT22;35400;45.472;-122.822;2024-03-17T08:33:29;9.30;99.90
6375;DHT22;35400;45.472;-122.822;2024-03-17T08:35:57;9.20;99.90
6375;DHT22;35400;45.472;-122.822;2024-03-17T08:38:25;9.20;99.90
6375;DHT22;35400;45.472;-122.822;2024-03-17T08:40:53;9.20;99.90
6375;DHT22;35400;45.472;-122.822;2024-03-17T08:43:21;9.20;99.90
6375;DHT22;35400;45.472;-122.822;2024-03-17T08:46:14;9.10;99.90
6375;DHT22;35400;45.472;-122.822;2024-03-17T08:48:41;9.00;99.90
6375;DHT22;35400;45.472;-122.822;2024-03-17T08:51:09;9.00;99.90
6375;DHT22;35400;45.472;-122.822;2024-03-17T08:53:37;8.90;99.90
6375;DHT22;35400;45.472;-122.822;2024-03-17T08:56:08;8.90;99.90
6375;DHT22;35400;45.472;-122.822;2024-03-17T08:58:35;8.80;99.90
6375;DHT22;35400;45.472;-122.822;2024-03-17T09:01:08;8.80;99.90
6375;DHT22;35400;45.472;-122.822;2024-03-17T09:03:35;8.80;99.90
6375;DHT22;35400;45.472;-122.822;2024-03-17T09:06:02;8.70;99.90
6375;DHT22;35400;45.472;-122.822;2024-03-17T09:08:31;8.70;99.90
6375;DHT22;35400;45.472;-122.822;2024-03-17T09:10:59;8.70;99.90
6375;DHT22;35400;45.472;-122.822;2024-03-17T09:13:26;8.60;99.90
6375;DHT22;35400;45.472;-122.822;2024-03-17T09:15:55;8.60;99.90
6375;DHT22;35400;45.472;-122.822;2024-03-17T09:18:29;8.50;99.90
6375;DHT22;35400;45.472;-122.822;2024-03-17T09:21:08;8.50;99.90
6375;DHT22;35400;45.472;-122.822;2024-03-17T09:23:35;8.50;99.90
6375;DHT22;35400;45.472;-122.822;2024-03-17T09:26:06;8.40;99.90
6375;DHT22;35400;45.472;-122.822;2024-03-17T09:28:37;8.40;99.90
6375;DHT22;35400;45.472;-122.822;2024-03-17T09:31:04;8.40;99.90
6375;DHT22;35400;45.472;-122.822;2024-03-17T09:33:34;8.30;99.90
6375;DHT22;35400;45.472;-122.822;2024-03-17T09:36:06;8.30;99.90
6375;DHT22;35400;45.472;-122.822;2024-03-17T09:38:34;8.30;99.90
6375;DHT22;35400;45.472;-122.822;2024-03-17T09:41:01;8.20;99.90
6375;DHT22;35400;45.472;-122.822;2024-03-17T09:43:31;8.20;99.90
6375;DHT22;35400;45.472;-122.822;2024-03-17T09:46:02;8.10;99.90
6375;DHT22;35400;45.472;-122.822;2024-03-17T09:48:29;8.10;99.90
6375;DHT22;35400;45.472;-122.822;2024-03-17T09:50:58;8.00;99.90
6375;DHT22;35400;45.472;-122.822;2024-03-17T09:53:30;8.00;99.90
6375;DHT22;35400;45.472;-122.822;2024-03-17T09:56:13;7.90;99.90
6375;DHT22;35400;45.472;-122.822;2024-03-17T09:58:49;7.90;99.90
6375;DHT22;35400;45.472;-122.822;2024-03-17T10:01:17;7.90;99.90
6375;DHT22;35400;45.472;-122.822;2024-03-17T10:03:48;7.90;99.90
6375;DHT22;35400;45.472;-122.822;2024-03-17T10:06:22;7.80;99.90
6375;DHT22;35400;45.472;-122.822;2024-03-17T10:08:54;7.80;99.90
6375;DHT22;35400;45.472;-122.822;2024-03-17T10:11:31;7.70;99.90
6375;DHT22;35400;45.472;-122.822;2024-03-17T10:14:01;7.70;99.90
6375;DHT22;35400;45.472;-122.822;2024-03-17T10:16:29;7.70;99.90
6375;DHT22;35400;45.472;-122.822;2024-03-17T10:19:16;7.60;99.90
6375;DHT22;35400;45.472;-122.822;2024-03-17T10:21:47;7.60;99.90
6375;DHT22;35400;45.472;-122.822;2024-03-17T10:24:20;7.60;99.90
6375;DHT22;35400;45.472;-122.822;2024-03-17T10:26:48;7.50;99.90
6375;DHT22;35400;45.472;-122.822;2024-03-17T10:29:27;7.50;99.90
6375;DHT22;35400;45.472;-122.822;2024-03-17T10:31:57;7.50;99.90
6375;DHT22;35400;45.472;-122.822;2024-03-17T10:34:26;7.50;99.90
6375;DHT22;35400;45.472;-122.822;2024-03-17T10:39:38;7.40;99.90
6375;DHT22;35400;45.472;-122.822;2024-03-17T10:42:07;7.30;99.90
6375;DHT22;35400;45.472;-122.822;2024-03-17T10:44:38;7.30;99.90
6375;DHT22;35400;45.472;-122.822;2024-03-17T10:47:06;7.20;99.90
6375;DHT22;35400;45.472;-122.822;2024-03-17T10:49:37;7.20;99.90
6375;DHT22;35400;45.472;-122.822;2024-03-17T10:52:13;7.20;99.90
6375;DHT22;35400;45.472;-122.822;2024-03-17T10:54:47;7.10;99.90
6375;DHT22;35400;45.472;-122.822;2024-03-17T10:59:48;7.10;99.90
6375;DHT22;35400;45.472;-122.822;2024-03-17T11:02:28;7.00;99.90
6375;DHT22;35400;45.472;-122.822;2024-03-17T11:05:03;7.00;99.90
6375;DHT22;35400;45.472;-122.822;2024-03-17T11:07:33;7.00;99.90
6375;DHT22;35400;45.472;-122.822;2024-03-17T11:10:04;7.00;99.90
6375;DHT22;35400;45.472;-122.822;2024-03-17T11:20:42;6.80;99.90
6375;DHT22;35400;45.472;-122.822;2024-03-17T11:23:09;6.80;99.90
6375;DHT22;35400;45.472;-122.822;2024-03-17T11:25:52;6.80;99.90
6375;DHT22;35400;45.472;-122.822;2024-03-17T11:31:48;6.70;99.90
6375;DHT22;35400;45.472;-122.822;2024-03-17T11:34:37;6.70;99.90
6375;DHT22;35400;45.472;-122.822;2024-03-17T11:37:40;6.60;99.90
6375;DHT22;35400;45.472;-122.822;2024-03-17T11:40:24;6.60;99.90
6375;DHT22;35400;45.472;-122.822;2024-03-17T11:43:12;6.60;99.90
6375;DHT22;35400;45.472;-122.822;2024-03-17T11:45:43;6.60;99.90
6375;DHT22;35400;45.472;-122.822;2024-03-17T11:48:14;6.50;99.90
6375;DHT22;35400;45.472;-122.822;2024-03-17T11:50:42;6.50;99.90
6375;DHT22;35400;45.472;-122.822;2024-03-17T11:53:11;6.40;99.90
6375;DHT22;35400;45.472;-122.822;2024-03-17T11:55:38;6.40;99.90
6375;DHT22;35400;45.472;-122.822;2024-03-17T11:58:12;6.40;99.90
6375;DHT22;35400;45.472;-122.822;2024-03-17T12:00:42;6.30;99.90
6375;DHT22;35400;45.472;-122.822;2024-03-17T12:03:11;6.30;99.90
6375;DHT22;35400;45.472;-122.822;2024-03-17T12:05:39;6.30;99.90
6375;DHT22;35400;45.472;-122.822;2024-03-17T12:08:20;6.30;99.90
6375;DHT22;35400;45.472;-122.822;2024-03-17T12:10:50;6.20;99.90
6375;DHT22;35400;45.472;-122.822;2024-03-17T12:13:17;6.20;99.90
6375;DHT22;35400;45.472;-122.822;2024-03-17T12:15:44;6.20;99.90
6375;DHT22;35400;45.472;-122.822;2024-03-17T12:18:20;6.10;99.90
6375;DHT22;35400;45.472;-122.822;2024-03-17T12:20:50;6.10;99.90
6375;DHT22;35400;45.472;-122.822;2024-03-17T12:23:17;6.10;99.90
6375;DHT22;35400;45.472;-122.822;2024-03-17T12:25:47;6.00;99.90
6375;DHT22;35400;45.472;-122.822;2024-03-17T12:28:17;6.00;99.90
6375;DHT22;35400;45.472;-122.822;2024-03-17T12:30:44;6.00;99.90
6375;DHT22;35400;45.472;-122.822;2024-03-17T12:33:13;6.00;99.90
6375;DHT22;35400;45.472;-122.822;2024-03-17T12:35:40;6.00;99.90
6375;DHT22;35400;45.472;-122.822;2024-03-17T12:38:21;5.90;99.90
6375;DHT22;35400;45.472;-122.822;2024-03-17T12:40:49;5.90;99.90
6375;DHT22;35400;45.472;-122.822;2024-03-17T12:43:16;5.90;99.90
6375;DHT22;35400;45.472;-122.822;2024-03-17T12:45:43;5.80;99.90
6375;DHT22;35400;45.472;-122.822;2024-03-17T12:48:15;5.80;99.90
6375;DHT22;35400;45.472;-122.822;2024-03-17T12:50:45;5.80;99.90
6375;DHT22;35400;45.472;-122.822;2024-03-17T12:53:16;5.80;99.90
6375;DHT22;35400;45.472;-122.822;2024-03-17T12:55:53;5.70;99.90
6375;DHT22;35400;45.472;-122.822;2024-03-17T12:58:38;5.70;99.90
6375;DHT22;35400;45.472;-122.822;2024-03-17T13:01:23;5.70;99.90
6375;DHT22;35400;45.472;-122.822;2024-03-17T13:03:50;5.60;99.90
6375;DHT22;35400;45.472;-122.822;2024-03-17T13:06:24;5.60;99.90
6375;DHT22;35400;45.472;-122.822;2024-03-17T13:08:51;5.60;99.90
6375;DHT22;35400;45.472;-122.822;2024-03-17T13:11:18;5.60;99.90
6375;DHT22;35400;45.472;-122.822;2024-03-17T13:13:45;5.50;99.90
6375;DHT22;35400;45.472;-122.822;2024-03-17T13:16:12;5.50;99.90
6375;DHT22;35400;45.472;-122.822;2024-03-17T13:18:40;5.50;99.90
6375;DHT22;35400;45.472;-122.822;2024-03-17T13:21:07;5.50;99.90
6375;DHT22;35400;45.472;-122.822;2024-03-17T13:23:34;5.40;99.90
6375;DHT22;35400;45.472;-122.822;2024-03-17T13:26:01;5.40;99.90
6375;DHT22;35400;45.472;-122.822;2024-03-17T13:28:28;5.40;99.90
6375;DHT22;35400;45.472;-122.822;2024-03-17T13:30:58;5.30;99.90
6375;DHT22;35400;45.472;-122.822;2024-03-17T13:33:24;5.40;99.90
6375;DHT22;35400;45.472;-122.822;2024-03-17T13:35:51;5.30;99.90
6375;DHT22;35400;45.472;-122.822;2024-03-17T13:38:19;5.30;99.90
6375;DHT22;35400;45.472;-122.822;2024-03-17T13:40:46;5.30;99.90
6375;DHT22;35400;45.472;-122.822;2024-03-17T13:43:12;5.20;99.90
6375;DHT22;35400;45.472;-122.822;2024-03-17T13:45:43;5.20;99.90
6375;DHT22;35400;45.472;-122.822;2024-03-17T13:48:10;5.20;99.90
6375;DHT22;35400;45.472;-122.822;2024-03-17T13:50:38;5.20;99.90
6375;DHT22;35400;45.472;-122.822;2024-03-17T13:53:05;5.10;99.90
6375;DHT22;35400;45.472;-122.822;2024-03-17T13:55:33;5.10;99.90
6375;DHT22;35400;45.472;-122.822;2024-03-17T13:58:00;5.10;99.90
6375;DHT22;35400;45.472;-122.822;2024-03-17T14:00:28;5.10;99.90
6375;DHT22;35400;45.472;-122.822;2024-03-17T14:02:57;5.00;99.90
6375;DHT22;35400;45.472;-122.822;2024-03-17T14:05:26;5.00;99.90
6375;DHT22;35400;45.472;-122.822;2024-03-17T14:07:54;5.00;99.90
6375;DHT22;35400;45.472;-122.822;2024-03-17T14:10:24;5.00;99.90
6375;DHT22;35400;45.472;-122.822;2024-03-17T14:12:52;5.00;99.90
6375;DHT22;35400;45.472;-122.822;2024-03-17T14:15:20;5.00;99.90
6375;DHT22;35400;45.472;-122.822;2024-03-17T14:17:48;5.00;99.90
6375;DHT22;35400;45.472;-122.822;2024-03-17T14:20:17;4.90;99.90
6375;DHT22;35400;45.472;-122.822;2024-03-17T14:22:46;4.90;99.90
6375;DHT22;35400;45.472;-122.822;2024-03-17T14:25:23;4.90;99.90
6375;DHT22;35400;45.472;-122.822;2024-03-17T14:27:52;4.90;99.90
6375;DHT22;35400;45.472;-122.822;2024-03-17T14:30:19;4.90;99.90
6375;DHT22;35400;45.472;-122.822;2024-03-17T14:32:47;4.90;99.90
6375;DHT22;35400;45.472;-122.822;2024-03-17T14:35:16;4.90;99.90
6375;DHT22;35400;45.472;-122.822;2024-03-17T14:37:44;4.90;99.90
6375;DHT22;35400;45.472;-122.822;2024-03-17T14:40:15;4.90;99.90
6375;DHT22;35400;45.472;-122.822;2024-03-17T14:42:51;4.80;99.90
6375;DHT22;35400;45.472;-122.822;2024-03-17T14:45:18;4.90;99.90
6375;DHT22;35400;45.472;-122.822;2024-03-17T14:47:45;4.90;99.90
6375;DHT22;35400;45.472;-122.822;2024-03-17T14:50:12;4.90;99.90
6375;DHT22;35400;45.472;-122.822;2024-03-17T14:52:40;4.90;99.90
6375;DHT22;35400;45.472;-122.822;2024-03-17T14:55:10;4.90;99.90
6375;DHT22;35400;45.472;-122.822;2024-03-17T14:57:38;4.90;99.90
6375;DHT22;35400;45.472;-122.822;2024-03-17T15:00:08;5.00;99.90
6375;DHT22;35400;45.472;-122.822;2024-03-17T15:02:50;5.00;99.90
6375;DHT22;35400;45.472;-122.822;2024-03-17T15:05:18;5.10;99.90
6375;DHT22;35400;45.472;-122.822;2024-03-17T15:07:52;5.10;99.90
6375;DHT22;35400;45.472;-122.822;2024-03-17T15:10:19;5.20;99.90
6375;DHT22;35400;45.472;-122.822;2024-03-17T15:12:50;5.20;99.90
6375;DHT22;35400;45.472;-122.822;2024-03-17T15:15:17;5.30;99.90
6375;DHT22;35400;45.472;-122.822;2024-03-17T15:17:44;5.40;99.90
6375;DHT22;35400;45.472;-122.822;2024-03-17T15:20:11;5.50;99.90
6375;DHT22;35400;45.472;-122.822;2024-03-17T15:22:46;5.60;99.90
6375;DHT22;35400;45.472;-122.822;2024-03-17T15:25:13;5.60;99.90
6375;DHT22;35400;45.472;-122.822;2024-03-17T15:27:44;5.80;99.90
6375;DHT22;35400;45.472;-122.822;2024-03-17T15:30:15;5.90;99.90
6375;DHT22;35400;45.472;-122.822;2024-03-17T15:32:46;6.00;99.90
6375;DHT22;35400;45.472;-122.822;2024-03-17T15:35:14;6.10;99.90
6375;DHT22;35400;45.472;-122.822;2024-03-17T15:37:41;6.30;99.90
6375;DHT22;35400;45.472;-122.822;2024-03-17T15:40:10;6.50;99.90